sensor_id;sensor_type;location;lat;lon;timestamp;P1;durP1;ratioP1;P2;durP2;ratioP2
58306;SDS011;44116;50.884;4.768;2023-10-09T00:04:54;12.2;;;6.4;;
58306;SDS011;44116;50.884;4.768;2023-10-09T00:06:54;11.6;;;6.5;;
58306;SDS011;44116;50.884;4.768;2023-10-09T00:08:54;12.1;;;6.3;;
58306;SDS011;44116;50.884;4.768;2023-10-09T00:12:53;11.1;;;6.5;;
58306;SDS011;44116;50.884;4.768;2023-10-09T00:14:54;13.3;;;6.8;;
58306;SDS011;44116;50.884;4.768;2023-10-09T00:16:53;12.0;;;7.1;;
58306;SDS011;44116;50.884;4.768;2023-10-09T00:18:53;13.1;;;6.4;;
58306;SDS011;44116;50.884;4.768;2023-10-09T00:20:53;12.1;;;6.6;;
58306;SDS011;44116;50.884;4.768;2023-10-09T00:22:53;13.1;;;6.4;;
58306;SDS011;44116;50.884;4.768;2023-10-09T00:24:53;16.3;;;7.4;;
58306;SDS011;44116;50.884;4.768;2023-10-09T00:26:53;15.2;;;6.6;;
58306;SDS011;44116;50.884;4.768;2023-10-09T00:28:52;13.2;;;7.0;;
58306;SDS011;44116;50.884;4.768;2023-10-09T00:30:52;11.8;;;6.8;;
58306;SDS011;44116;50.884;4.768;2023-10-09T00:32:52;11.7;;;6.2;;
58306;SDS011;44116;50.884;4.768;2023-10-09T00:34:52;12.1;;;6.6;;
58306;SDS011;44116;50.884;4.768;2023-10-09T00:36:52;11.8;;;6.4;;
58306;SDS011;44116;50.884;4.768;2023-10-09T00:38:52;13.9;;;6.2;;
58306;SDS011;44116;50.884;4.768;2023-10-09T00:40:52;12.7;;;6.5;;
58306;SDS011;44116;50.884;4.768;2023-10-09T00:42:51;11.3;;;6.8;;
58306;SDS011;44116;50.884;4.768;2023-10-09T00:44:51;10.6;;;6.4;;
58306;SDS011;44116;50.884;4.768;2023-10-09T00:46:51;11.6;;;6.1;;
58306;SDS011;44116;50.884;4.768;2023-10-09T00:48:54;11.4;;;6.3;;
58306;SDS011;44116;50.884;4.768;2023-10-09T00:50:51;14.6;;;6.6;;
58306;SDS011;44116;50.884;4.768;2023-10-09T00:52:54;9.9;;;6.3;;
58306;SDS011;44116;50.884;4.768;2023-10-09T00:54:51;13.4;;;6.6;;
58306;SDS011;44116;50.884;4.768;2023-10-09T00:56:50;12.7;;;6.7;;
58306;SDS011;44116;50.884;4.768;2023-10-09T00:58:51;11.9;;;7.0;;
58306;SDS011;44116;50.884;4.768;2023-10-09T01:00:50;12.9;;;6.4;;
58306;SDS011;44116;50.884;4.768;2023-10-09T01:02:50;12.0;;;6.2;;
58306;SDS011;44116;50.884;4.768;2023-10-09T01:04:50;12.5;;;6.8;;
58306;SDS011;44116;50.884;4.768;2023-10-09T01:06:50;11.3;;;6.9;;
58306;SDS011;44116;50.884;4.768;2023-10-09T01:08:50;14.1;;;7.1;;
58306;SDS011;44116;50.884;4.768;2023-10-09T01:10:50;12.9;;;6.5;;
58306;SDS011;44116;50.884;4.768;2023-10-09T01:12:49;13.2;;;6.4;;
58306;SDS011;44116;50.884;4.768;2023-10-09T01:14:49;11.5;;;6.6;;
58306;SDS011;44116;50.884;4.768;2023-10-09T01:16:49;12.4;;;6.1;;
58306;SDS011;44116;50.884;4.768;2023-10-09T01:18:51;13.0;;;6.9;;
58306;SDS011;44116;50.884;4.768;2023-10-09T01:20:49;14.3;;;6.7;;
58306;SDS011;44116;50.884;4.768;2023-10-09T01:22:49;13.2;;;6.6;;
58306;SDS011;44116;50.884;4.768;2023-10-09T01:24:49;10.9;;;6.2;;
58306;SDS011;44116;50.884;4.768;2023-10-09T01:26:49;11.7;;;6.6;;
58306;SDS011;44116;50.884;4.768;2023-10-09T01:28:49;13.2;;;6.8;;
58306;SDS011;44116;50.884;4.768;2023-10-09T01:30:48;15.8;;;7.1;;
58306;SDS011;44116;50.884;4.768;2023-10-09T01:32:48;11.6;;;6.6;;
58306;SDS011;44116;50.884;4.768;2023-10-09T01:34:48;13.5;;;7.0;;
58306;SDS011;44116;50.884;4.768;2023-10-09T01:36:48;12.1;;;6.5;;
58306;SDS011;44116;50.884;4.768;2023-10-09T01:38:48;12.9;;;6.8;;
58306;SDS011;44116;50.884;4.768;2023-10-09T01:40:48;12.6;;;6.2;;
58306;SDS011;44116;50.884;4.768;2023-10-09T01:42:47;14.0;;;7.0;;
58306;SDS011;44116;50.884;4.768;2023-10-09T01:44:47;10.3;;;6.7;;
58306;SDS011;44116;50.884;4.768;2023-10-09T01:46:47;11.6;;;6.5;;
58306;SDS011;44116;50.884;4.768;2023-10-09T01:48:47;10.0;;;6.3;;
58306;SDS011;44116;50.884;4.768;2023-10-09T01:50:47;12.9;;;7.1;;
58306;SDS011;44116;50.884;4.768;2023-10-09T01:52:47;12.5;;;6.7;;
58306;SDS011;44116;50.884;4.768;2023-10-09T01:54:50;13.0;;;7.0;;
58306;SDS011;44116;50.884;4.768;2023-10-09T01:58:46;14.6;;;7.8;;
58306;SDS011;44116;50.884;4.768;2023-10-09T02:00:46;11.6;;;6.7;;
58306;SDS011;44116;50.884;4.768;2023-10-09T02:02:46;14.9;;;7.4;;
58306;SDS011;44116;50.884;4.768;2023-10-09T02:04:46;13.9;;;7.6;;
58306;SDS011;44116;50.884;4.768;2023-10-09T02:06:46;12.6;;;6.4;;
58306;SDS011;44116;50.884;4.768;2023-10-09T02:08:46;14.1;;;6.9;;
58306;SDS011;44116;50.884;4.768;2023-10-09T02:10:46;12.3;;;6.2;;
58306;SDS011;44116;50.884;4.768;2023-10-09T02:12:45;14.6;;;6.8;;
58306;SDS011;44116;50.884;4.768;2023-10-09T02:14:45;13.4;;;7.3;;
58306;SDS011;44116;50.884;4.768;2023-10-09T02:16:47;12.1;;;6.6;;
58306;SDS011;44116;50.884;4.768;2023-10-09T02:18:45;13.4;;;7.3;;
58306;SDS011;44116;50.884;4.768;2023-10-09T02:20:46;12.0;;;6.9;;
58306;SDS011;44116;50.884;4.768;2023-10-09T02:22:45;13.3;;;6.6;;
58306;SDS011;44116;50.884;4.768;2023-10-09T02:24:45;13.5;;;6.8;;
58306;SDS011;44116;50.884;4.768;2023-10-09T02:26:45;13.4;;;6.6;;
58306;SDS011;44116;50.884;4.768;2023-10-09T02:28:44;12.5;;;7.0;;
58306;SDS011;44116;50.884;4.768;2023-10-09T02:30:45;13.8;;;6.9;;
58306;SDS011;44116;50.884;4.768;2023-10-09T02:32:45;12.9;;;7.1;;
58306;SDS011;44116;50.884;4.768;2023-10-09T02:34:44;12.3;;;6.4;;
58306;SDS011;44116;50.884;4.768;2023-10-09T02:36:44;14.1;;;6.5;;
58306;SDS011;44116;50.884;4.768;2023-10-09T02:38:44;12.1;;;6.8;;
58306;SDS011;44116;50.884;4.768;2023-10-09T02:40:44;14.6;;;6.0;;
58306;SDS011;44116;50.884;4.768;2023-10-09T02:42:43;14.2;;;6.5;;
58306;SDS011;44116;50.884;4.768;2023-10-09T02:44:43;15.7;;;6.3;;
58306;SDS011;44116;50.884;4.768;2023-10-09T02:46:43;14.0;;;7.0;;
58306;SDS011;44116;50.884;4.768;2023-10-09T02:48:44;12.2;;;7.1;;
58306;SDS011;44116;50.884;4.768;2023-10-09T02:50:43;13.8;;;7.0;;
58306;SDS011;44116;50.884;4.768;2023-10-09T02:52:45;13.7;;;6.4;;
58306;SDS011;44116;50.884;4.768;2023-10-09T02:56:43;13.4;;;6.9;;
58306;SDS011;44116;50.884;4.768;2023-10-09T02:58:43;14.1;;;6.5;;
58306;SDS011;44116;50.884;4.768;2023-10-09T03:00:42;10.7;;;6.4;;
58306;SDS011;44116;50.884;4.768;2023-10-09T03:02:42;12.1;;;6.6;;
58306;SDS011;44116;50.884;4.768;2023-10-09T03:04:42;12.2;;;7.1;;
58306;SDS011;44116;50.884;4.768;2023-10-09T03:06:42;14.5;;;6.6;;
58306;SDS011;44116;50.884;4.768;2023-10-09T03:08:42;14.0;;;7.0;;
58306;SDS011;44116;50.884;4.768;2023-10-09T03:14:41;13.3;;;7.1;;
58306;SDS011;44116;50.884;4.768;2023-10-09T03:16:41;11.7;;;6.7;;
58306;SDS011;44116;50.884;4.768;2023-10-09T03:18:41;13.7;;;7.0;;
58306;SDS011;44116;50.884;4.768;2023-10-09T03:20:41;13.1;;;6.8;;
58306;SDS011;44116;50.884;4.768;2023-10-09T03:22:41;12.4;;;6.7;;
58306;SDS011;44116;50.884;4.768;2023-10-09T03:24:41;12.8;;;7.0;;
58306;SDS011;44116;50.884;4.768;2023-10-09T03:26:41;14.9;;;7.8;;
58306;SDS011;44116;50.884;4.768;2023-10-09T03:28:40;14.6;;;7.4;;
58306;SDS011;44116;50.884;4.768;2023-10-09T03:30:41;12.2;;;6.6;;
58306;SDS011;44116;50.884;4.768;2023-10-09T03:32:40;13.3;;;7.2;;
58306;SDS011;44116;50.884;4.768;2023-10-09T03:34:40;12.2;;;6.5;;
58306;SDS011;44116;50.884;4.768;2023-10-09T03:36:40;12.3;;;6.2;;
58306;SDS011;44116;50.884;4.768;2023-10-09T03:40:41;12.2;;;7.1;;
58306;SDS011;44116;50.884;4.768;2023-10-09T03:46:39;11.8;;;6.7;;
58306;SDS011;44116;50.884;4.768;2023-10-09T03:50:39;14.1;;;6.8;;
58306;SDS011;44116;50.884;4.768;2023-10-09T03:52:39;14.3;;;7.6;;
58306;SDS011;44116;50.884;4.768;2023-10-09T03:54:39;12.5;;;6.8;;
58306;SDS011;44116;50.884;4.768;2023-10-09T03:56:39;14.3;;;7.4;;
58306;SDS011;44116;50.884;4.768;2023-10-09T03:58:39;15.4;;;6.9;;
58306;SDS011;44116;50.884;4.768;2023-10-09T04:00:38;14.9;;;7.3;;
58306;SDS011;44116;50.884;4.768;2023-10-09T04:02:38;12.5;;;6.9;;
58306;SDS011;44116;50.884;4.768;2023-10-09T04:04:38;12.6;;;7.3;;
58306;SDS011;44116;50.884;4.768;2023-10-09T04:06:38;13.7;;;7.2;;
58306;SDS011;44116;50.884;4.768;2023-10-09T04:08:38;14.9;;;7.0;;
58306;SDS011;44116;50.884;4.768;2023-10-09T04:10:38;14.3;;;7.5;;
58306;SDS011;44116;50.884;4.768;2023-10-09T04:12:38;15.3;;;7.9;;
58306;SDS011;44116;50.884;4.768;2023-10-09T04:14:38;13.9;;;7.7;;
58306;SDS011;44116;50.884;4.768;2023-10-09T04:16:37;13.5;;;7.6;;
58306;SDS011;44116;50.884;4.768;2023-10-09T04:18:37;12.2;;;7.2;;
58306;SDS011;44116;50.884;4.768;2023-10-09T04:20:37;12.2;;;7.4;;
58306;SDS011;44116;50.884;4.768;2023-10-09T04:22:37;15.2;;;7.3;;
58306;SDS011;44116;50.884;4.768;2023-10-09T04:24:37;13.7;;;7.8;;
58306;SDS011;44116;50.884;4.768;2023-10-09T04:26:38;11.4;;;7.2;;
58306;SDS011;44116;50.884;4.768;2023-10-09T04:28:37;12.6;;;7.8;;
58306;SDS011;44116;50.884;4.768;2023-10-09T04:30:37;14.4;;;7.5;;
58306;SDS011;44116;50.884;4.768;2023-10-09T04:32:36;12.3;;;7.6;;
58306;SDS011;44116;50.884;4.768;2023-10-09T04:34:36;15.1;;;7.9;;
58306;SDS011;44116;50.884;4.768;2023-10-09T04:36:36;13.9;;;7.6;;
58306;SDS011;44116;50.884;4.768;2023-10-09T04:38:36;14.1;;;8.4;;
58306;SDS011;44116;50.884;4.768;2023-10-09T04:40:36;17.2;;;7.9;;
58306;SDS011;44116;50.884;4.768;2023-10-09T04:42:36;13.6;;;7.6;;
58306;SDS011;44116;50.884;4.768;2023-10-09T04:44:35;14.8;;;7.8;;
58306;SDS011;44116;50.884;4.768;2023-10-09T04:46:35;14.5;;;7.9;;
58306;SDS011;44116;50.884;4.768;2023-10-09T04:50:35;13.5;;;7.4;;
58306;SDS011;44116;50.884;4.768;2023-10-09T04:52:35;14.5;;;8.0;;
58306;SDS011;44116;50.884;4.768;2023-10-09T04:54:35;16.0;;;8.2;;
58306;SDS011;44116;50.884;4.768;2023-10-09T04:56:35;14.7;;;7.1;;
58306;SDS011;44116;50.884;4.768;2023-10-09T04:58:34;14.2;;;7.9;;
58306;SDS011;44116;50.884;4.768;2023-10-09T05:00:35;15.1;;;7.3;;
58306;SDS011;44116;50.884;4.768;2023-10-09T05:02:34;15.0;;;8.0;;
58306;SDS011;44116;50.884;4.768;2023-10-09T05:04:34;15.6;;;7.9;;
58306;SDS011;44116;50.884;4.768;2023-10-09T05:06:34;14.8;;;8.1;;
58306;SDS011;44116;50.884;4.768;2023-10-09T05:08:34;16.1;;;8.7;;
58306;SDS011;44116;50.884;4.768;2023-10-09T05:10:34;15.8;;;8.8;;
58306;SDS011;44116;50.884;4.768;2023-10-09T05:12:34;15.3;;;8.0;;
58306;SDS011;44116;50.884;4.768;2023-10-09T05:14:33;17.5;;;8.5;;
58306;SDS011;44116;50.884;4.768;2023-10-09T05:16:33;15.8;;;8.2;;
58306;SDS011;44116;50.884;4.768;2023-10-09T05:18:33;16.3;;;8.3;;
58306;SDS011;44116;50.884;4.768;2023-10-09T05:20:33;14.2;;;7.9;;
58306;SDS011;44116;50.884;4.768;2023-10-09T05:22:33;17.2;;;8.4;;
58306;SDS011;44116;50.884;4.768;2023-10-09T05:24:33;14.9;;;7.7;;
58306;SDS011;44116;50.884;4.768;2023-10-09T05:26:32;14.8;;;8.5;;
58306;SDS011;44116;50.884;4.768;2023-10-09T05:28:32;16.4;;;8.6;;
58306;SDS011;44116;50.884;4.768;2023-10-09T05:30:32;14.4;;;8.5;;
58306;SDS011;44116;50.884;4.768;2023-10-09T05:32:32;14.4;;;8.0;;
58306;SDS011;44116;50.884;4.768;2023-10-09T05:34:33;15.4;;;8.8;;
58306;SDS011;44116;50.884;4.768;2023-10-09T05:36:32;15.0;;;7.8;;
58306;SDS011;44116;50.884;4.768;2023-10-09T05:38:32;14.9;;;8.6;;
58306;SDS011;44116;50.884;4.768;2023-10-09T05:40:32;16.7;;;8.7;;
58306;SDS011;44116;50.884;4.768;2023-10-09T05:42:33;14.4;;;8.5;;
58306;SDS011;44116;50.884;4.768;2023-10-09T05:44:31;16.1;;;8.2;;
58306;SDS011;44116;50.884;4.768;2023-10-09T05:46:31;13.7;;;8.0;;
58306;SDS011;44116;50.884;4.768;2023-10-09T05:48:31;14.6;;;8.2;;
58306;SDS011;44116;50.884;4.768;2023-10-09T05:50:31;16.7;;;9.0;;
58306;SDS011;44116;50.884;4.768;2023-10-09T05:52:31;14.1;;;8.4;;
58306;SDS011;44116;50.884;4.768;2023-10-09T05:54:30;16.9;;;9.1;;
58306;SDS011;44116;50.884;4.768;2023-10-09T05:56:30;16.6;;;9.3;;
58306;SDS011;44116;50.884;4.768;2023-10-09T05:58:30;15.0;;;8.6;;
58306;SDS011;44116;50.884;4.768;2023-10-09T06:00:30;16.5;;;9.2;;
58306;SDS011;44116;50.884;4.768;2023-10-09T06:02:30;14.9;;;8.5;;
58306;SDS011;44116;50.884;4.768;2023-10-09T06:04:30;14.9;;;9.1;;
58306;SDS011;44116;50.884;4.768;2023-10-09T06:06:30;18.4;;;9.2;;
58306;SDS011;44116;50.884;4.768;2023-10-09T06:08:31;18.0;;;9.3;;
58306;SDS011;44116;50.884;4.768;2023-10-09T06:10:30;15.2;;;8.5;;
58306;SDS011;44116;50.884;4.768;2023-10-09T06:12:29;17.9;;;8.9;;
58306;SDS011;44116;50.884;4.768;2023-10-09T06:14:29;14.6;;;7.9;;
58306;SDS011;44116;50.884;4.768;2023-10-09T06:16:29;16.6;;;9.6;;
58306;SDS011;44116;50.884;4.768;2023-10-09T06:18:29;18.8;;;9.1;;
58306;SDS011;44116;50.884;4.768;2023-10-09T06:20:29;17.0;;;9.3;;
58306;SDS011;44116;50.884;4.768;2023-10-09T06:22:29;17.1;;;9.0;;
58306;SDS011;44116;50.884;4.768;2023-10-09T06:24:29;15.8;;;9.2;;
58306;SDS011;44116;50.884;4.768;2023-10-09T06:26:28;18.0;;;9.5;;
58306;SDS011;44116;50.884;4.768;2023-10-09T06:28:28;14.9;;;9.2;;
58306;SDS011;44116;50.884;4.768;2023-10-09T06:30:28;15.9;;;9.0;;
58306;SDS011;44116;50.884;4.768;2023-10-09T06:32:28;16.9;;;9.5;;
58306;SDS011;44116;50.884;4.768;2023-10-09T06:36:28;18.0;;;9.0;;
58306;SDS011;44116;50.884;4.768;2023-10-09T06:38:28;16.9;;;9.7;;
58306;SDS011;44116;50.884;4.768;2023-10-09T06:40:28;16.2;;;9.4;;
58306;SDS011;44116;50.884;4.768;2023-10-09T06:42:28;16.4;;;9.3;;
58306;SDS011;44116;50.884;4.768;2023-10-09T06:44:27;16.0;;;9.1;;
58306;SDS011;44116;50.884;4.768;2023-10-09T06:46:27;17.2;;;9.7;;
58306;SDS011;44116;50.884;4.768;2023-10-09T06:48:27;16.0;;;8.9;;
58306;SDS011;44116;50.884;4.768;2023-10-09T06:50:27;17.1;;;9.4;;
58306;SDS011;44116;50.884;4.768;2023-10-09T06:52:27;16.4;;;8.9;;
58306;SDS011;44116;50.884;4.768;2023-10-09T06:54:26;16.4;;;9.2;;
58306;SDS011;44116;50.884;4.768;2023-10-09T06:56:28;18.0;;;9.5;;
58306;SDS011;44116;50.884;4.768;2023-10-09T06:58:26;14.8;;;8.5;;
58306;SDS011;44116;50.884;4.768;2023-10-09T07:00:27;18.1;;;9.5;;
58306;SDS011;44116;50.884;4.768;2023-10-09T07:02:26;15.1;;;9.2;;
58306;SDS011;44116;50.884;4.768;2023-10-09T07:04:26;16.8;;;9.4;;
58306;SDS011;44116;50.884;4.768;2023-10-09T07:06:26;17.1;;;9.7;;
58306;SDS011;44116;50.884;4.768;2023-10-09T07:08:26;15.4;;;8.6;;
58306;SDS011;44116;50.884;4.768;2023-10-09T07:10:25;14.8;;;9.8;;
58306;SDS011;44116;50.884;4.768;2023-10-09T07:12:25;15.7;;;9.2;;
58306;SDS011;44116;50.884;4.768;2023-10-09T07:14:25;15.8;;;9.4;;
58306;SDS011;44116;50.884;4.768;2023-10-09T07:16:25;17.7;;;9.5;;
58306;SDS011;44116;50.884;4.768;2023-10-09T07:18:25;21.1;;;9.1;;
58306;SDS011;44116;50.884;4.768;2023-10-09T07:20:25;15.8;;;9.5;;
58306;SDS011;44116;50.884;4.768;2023-10-09T07:24:25;15.8;;;9.1;;
58306;SDS011;44116;50.884;4.768;2023-10-09T07:26:24;19.8;;;8.8;;
58306;SDS011;44116;50.884;4.768;2023-10-09T07:28:24;17.5;;;9.0;;
58306;SDS011;44116;50.884;4.768;2023-10-09T07:30:24;14.9;;;8.4;;
58306;SDS011;44116;50.884;4.768;2023-10-09T07:32:24;20.5;;;9.6;;
58306;SDS011;44116;50.884;4.768;2023-10-09T07:34:24;16.4;;;9.0;;
58306;SDS011;44116;50.884;4.768;2023-10-09T07:38:24;16.8;;;8.6;;
58306;SDS011;44116;50.884;4.768;2023-10-09T07:40:24;16.1;;;8.9;;
58306;SDS011;44116;50.884;4.768;2023-10-09T07:42:24;17.8;;;9.4;;
58306;SDS011;44116;50.884;4.768;2023-10-09T07:44:23;16.9;;;9.0;;
58306;SDS011;44116;50.884;4.768;2023-10-09T07:46:23;16.7;;;8.9;;
58306;SDS011;44116;50.884;4.768;2023-10-09T07:48:23;16.2;;;9.1;;
58306;SDS011;44116;50.884;4.768;2023-10-09T07:50:23;17.0;;;9.6;;
58306;SDS011;44116;50.884;4.768;2023-10-09T07:52:23;15.9;;;8.7;;
58306;SDS011;44116;50.884;4.768;2023-10-09T07:54:23;18.5;;;9.0;;
58306;SDS011;44116;50.884;4.768;2023-10-09T07:56:23;17.4;;;8.7;;
58306;SDS011;44116;50.884;4.768;2023-10-09T07:58:23;16.0;;;9.1;;
58306;SDS011;44116;50.884;4.768;2023-10-09T08:02:23;16.1;;;9.8;;
58306;SDS011;44116;50.884;4.768;2023-10-09T08:04:23;20.0;;;8.7;;
58306;SDS011;44116;50.884;4.768;2023-10-09T08:06:24;15.6;;;8.8;;
58306;SDS011;44116;50.884;4.768;2023-10-09T08:08:22;17.1;;;9.4;;
58306;SDS011;44116;50.884;4.768;2023-10-09T08:10:22;19.2;;;9.3;;
58306;SDS011;44116;50.884;4.768;2023-10-09T08:12:22;17.7;;;9.4;;
58306;SDS011;44116;50.884;4.768;2023-10-09T08:14:22;14.3;;;9.2;;
58306;SDS011;44116;50.884;4.768;2023-10-09T08:16:22;14.6;;;9.5;;
58306;SDS011;44116;50.884;4.768;2023-10-09T08:18:22;14.8;;;9.1;;
58306;SDS011;44116;50.884;4.768;2023-10-09T08:20:22;17.5;;;9.3;;
58306;SDS011;44116;50.884;4.768;2023-10-09T08:22:23;17.9;;;9.6;;
58306;SDS011;44116;50.884;4.768;2023-10-09T08:24:21;16.1;;;8.7;;
58306;SDS011;44116;50.884;4.768;2023-10-09T08:26:21;15.4;;;9.8;;
58306;SDS011;44116;50.884;4.768;2023-10-09T08:28:21;16.3;;;9.2;;
58306;SDS011;44116;50.884;4.768;2023-10-09T08:30:21;20.0;;;9.7;;
58306;SDS011;44116;50.884;4.768;2023-10-09T08:32:21;17.4;;;9.6;;
58306;SDS011;44116;50.884;4.768;2023-10-09T08:34:21;16.0;;;9.4;;
58306;SDS011;44116;50.884;4.768;2023-10-09T08:36:21;16.1;;;9.2;;
58306;SDS011;44116;50.884;4.768;2023-10-09T08:38:21;19.1;;;9.4;;
58306;SDS011;44116;50.884;4.768;2023-10-09T08:40:21;15.7;;;9.5;;
58306;SDS011;44116;50.884;4.768;2023-10-09T08:42:21;18.7;;;9.3;;
58306;SDS011;44116;50.884;4.768;2023-10-09T08:44:21;16.3;;;8.7;;
58306;SDS011;44116;50.884;4.768;2023-10-09T08:46:23;16.2;;;9.2;;
58306;SDS011;44116;50.884;4.768;2023-10-09T08:48:20;17.8;;;9.7;;
58306;SDS011;44116;50.884;4.768;2023-10-09T08:50:20;15.6;;;9.6;;
58306;SDS011;44116;50.884;4.768;2023-10-09T08:52:20;15.3;;;9.8;;
58306;SDS011;44116;50.884;4.768;2023-10-09T08:56:21;17.1;;;9.9;;
58306;SDS011;44116;50.884;4.768;2023-10-09T08:58:20;16.2;;;9.4;;
58306;SDS011;44116;50.884;4.768;2023-10-09T09:00:20;17.3;;;9.5;;
58306;SDS011;44116;50.884;4.768;2023-10-09T09:02:20;16.1;;;9.9;;
58306;SDS011;44116;50.884;4.768;2023-10-09T09:04:33;17.3;;;9.5;;
58306;SDS011;44116;50.884;4.768;2023-10-09T09:06:20;17.4;;;9.7;;
58306;SDS011;44116;50.884;4.768;2023-10-09T09:08:22;16.1;;;9.8;;
58306;SDS011;44116;50.884;4.768;2023-10-09T09:10:27;16.6;;;9.1;;
58306;SDS011;44116;50.884;4.768;2023-10-09T09:12:20;20.2;;;10.2;;
58306;SDS011;44116;50.884;4.768;2023-10-09T09:14:20;20.6;;;9.2;;
58306;SDS011;44116;50.884;4.768;2023-10-09T09:16:22;14.9;;;8.8;;
58306;SDS011;44116;50.884;4.768;2023-10-09T09:18:20;17.0;;;9.2;;
58306;SDS011;44116;50.884;4.768;2023-10-09T09:20:21;14.9;;;9.1;;
58306;SDS011;44116;50.884;4.768;2023-10-09T09:22:20;17.1;;;9.0;;
58306;SDS011;44116;50.884;4.768;2023-10-09T09:24:20;20.3;;;10.3;;
58306;SDS011;44116;50.884;4.768;2023-10-09T09:26:34;17.9;;;9.4;;
58306;SDS011;44116;50.884;4.768;2023-10-09T09:28:19;17.0;;;9.7;;
58306;SDS011;44116;50.884;4.768;2023-10-09T09:30:26;15.7;;;9.6;;
58306;SDS011;44116;50.884;4.768;2023-10-09T09:32:28;22.2;;;10.1;;
58306;SDS011;44116;50.884;4.768;2023-10-09T09:34:19;17.0;;;9.5;;
58306;SDS011;44116;50.884;4.768;2023-10-09T09:36:19;16.4;;;8.8;;
58306;SDS011;44116;50.884;4.768;2023-10-09T09:38:19;14.6;;;8.9;;
58306;SDS011;44116;50.884;4.768;2023-10-09T09:40:20;17.0;;;9.4;;
58306;SDS011;44116;50.884;4.768;2023-10-09T09:42:19;16.7;;;8.7;;
58306;SDS011;44116;50.884;4.768;2023-10-09T09:44:19;15.7;;;9.0;;
58306;SDS011;44116;50.884;4.768;2023-10-09T09:46:19;18.3;;;9.5;;
58306;SDS011;44116;50.884;4.768;2023-10-09T09:48:19;16.5;;;9.3;;
58306;SDS011;44116;50.884;4.768;2023-10-09T09:50:19;16.7;;;9.1;;
58306;SDS011;44116;50.884;4.768;2023-10-09T09:54:19;20.3;;;9.9;;
58306;SDS011;44116;50.884;4.768;2023-10-09T09:56:20;17.0;;;9.4;;
58306;SDS011;44116;50.884;4.768;2023-10-09T09:58:20;17.1;;;9.3;;
58306;SDS011;44116;50.884;4.768;2023-10-09T10:00:21;17.0;;;9.4;;
58306;SDS011;44116;50.884;4.768;2023-10-09T10:02:26;18.0;;;8.8;;
58306;SDS011;44116;50.884;4.768;2023-10-09T10:04:19;16.7;;;9.7;;
58306;SDS011;44116;50.884;4.768;2023-10-09T10:06:20;16.0;;;9.3;;
58306;SDS011;44116;50.884;4.768;2023-10-09T10:08:21;15.7;;;9.0;;
58306;SDS011;44116;50.884;4.768;2023-10-09T10:10:37;19.6;;;9.4;;
58306;SDS011;44116;50.884;4.768;2023-10-09T10:14:19;18.0;;;9.3;;
58306;SDS011;44116;50.884;4.768;2023-10-09T10:16:19;18.4;;;9.2;;
58306;SDS011;44116;50.884;4.768;2023-10-09T10:18:19;16.4;;;9.0;;
58306;SDS011;44116;50.884;4.768;2023-10-09T10:20:19;17.1;;;9.3;;
58306;SDS011;44116;50.884;4.768;2023-10-09T10:22:27;15.7;;;8.9;;
58306;SDS011;44116;50.884;4.768;2023-10-09T10:26:20;15.8;;;8.3;;
58306;SDS011;44116;50.884;4.768;2023-10-09T10:28:20;19.3;;;9.2;;
58306;SDS011;44116;50.884;4.768;2023-10-09T10:32:18;15.7;;;8.6;;
58306;SDS011;44116;50.884;4.768;2023-10-09T10:34:18;19.0;;;9.1;;
58306;SDS011;44116;50.884;4.768;2023-10-09T10:36:19;18.5;;;9.6;;
58306;SDS011;44116;50.884;4.768;2023-10-09T10:38:22;18.2;;;8.6;;
58306;SDS011;44116;50.884;4.768;2023-10-09T10:42:18;19.8;;;8.9;;
58306;SDS011;44116;50.884;4.768;2023-10-09T10:44:27;15.5;;;8.4;;
58306;SDS011;44116;50.884;4.768;2023-10-09T10:46:20;16.4;;;7.6;;
58306;SDS011;44116;50.884;4.768;2023-10-09T10:48:18;16.7;;;8.5;;
58306;SDS011;44116;50.884;4.768;2023-10-09T10:50:19;13.7;;;7.9;;
58306;SDS011;44116;50.884;4.768;2023-10-09T10:52:20;14.5;;;8.0;;
58306;SDS011;44116;50.884;4.768;2023-10-09T10:54:21;15.7;;;9.1;;
58306;SDS011;44116;50.884;4.768;2023-10-09T10:56:18;15.6;;;8.3;;
58306;SDS011;44116;50.884;4.768;2023-10-09T10:58:18;16.1;;;8.0;;
58306;SDS011;44116;50.884;4.768;2023-10-09T11:00:19;16.7;;;7.9;;
58306;SDS011;44116;50.884;4.768;2023-10-09T11:02:20;16.6;;;8.4;;
58306;SDS011;44116;50.884;4.768;2023-10-09T11:04:20;13.9;;;7.4;;
58306;SDS011;44116;50.884;4.768;2023-10-09T11:06:24;14.8;;;8.0;;
58306;SDS011;44116;50.884;4.768;2023-10-09T11:08:24;14.6;;;7.8;;
58306;SDS011;44116;50.884;4.768;2023-10-09T11:10:22;15.8;;;7.5;;
58306;SDS011;44116;50.884;4.768;2023-10-09T11:12:18;16.1;;;7.8;;
58306;SDS011;44116;50.884;4.768;2023-10-09T11:14:18;16.8;;;7.5;;
58306;SDS011;44116;50.884;4.768;2023-10-09T11:16:19;15.0;;;7.8;;
58306;SDS011;44116;50.884;4.768;2023-10-09T11:18:18;14.4;;;8.0;;
58306;SDS011;44116;50.884;4.768;2023-10-09T11:20:18;11.4;;;7.0;;
58306;SDS011;44116;50.884;4.768;2023-10-09T11:22:19;15.3;;;8.1;;
58306;SDS011;44116;50.884;4.768;2023-10-09T11:24:18;16.0;;;8.2;;
58306;SDS011;44116;50.884;4.768;2023-10-09T11:26:19;12.3;;;7.5;;
58306;SDS011;44116;50.884;4.768;2023-10-09T11:28:20;14.0;;;8.0;;
58306;SDS011;44116;50.884;4.768;2023-10-09T11:30:18;17.4;;;8.4;;
58306;SDS011;44116;50.884;4.768;2023-10-09T11:32:19;13.5;;;8.1;;
58306;SDS011;44116;50.884;4.768;2023-10-09T11:34:19;14.3;;;7.7;;
58306;SDS011;44116;50.884;4.768;2023-10-09T11:38:18;13.8;;;7.5;;
58306;SDS011;44116;50.884;4.768;2023-10-09T11:40:28;14.5;;;7.7;;
58306;SDS011;44116;50.884;4.768;2023-10-09T11:42:19;15.6;;;7.8;;
58306;SDS011;44116;50.884;4.768;2023-10-09T11:44:37;17.0;;;7.5;;
58306;SDS011;44116;50.884;4.768;2023-10-09T11:48:19;13.4;;;7.6;;
58306;SDS011;44116;50.884;4.768;2023-10-09T11:50:18;12.5;;;7.4;;
58306;SDS011;44116;50.884;4.768;2023-10-09T11:52:18;14.2;;;8.0;;
58306;SDS011;44116;50.884;4.768;2023-10-09T11:54:29;15.5;;;7.7;;
58306;SDS011;44116;50.884;4.768;2023-10-09T11:56:21;17.4;;;8.2;;
58306;SDS011;44116;50.884;4.768;2023-10-09T11:58:19;13.8;;;8.1;;
58306;SDS011;44116;50.884;4.768;2023-10-09T12:02:19;16.3;;;8.5;;
58306;SDS011;44116;50.884;4.768;2023-10-09T12:04:18;18.8;;;8.3;;
58306;SDS011;44116;50.884;4.768;2023-10-09T12:06:20;21.5;;;9.9;;
58306;SDS011;44116;50.884;4.768;2023-10-09T12:08:18;16.3;;;7.8;;
58306;SDS011;44116;50.884;4.768;2023-10-09T12:10:18;14.9;;;7.6;;
58306;SDS011;44116;50.884;4.768;2023-10-09T12:12:19;14.3;;;8.0;;
58306;SDS011;44116;50.884;4.768;2023-10-09T12:14:19;18.2;;;8.4;;
58306;SDS011;44116;50.884;4.768;2023-10-09T12:16:18;16.8;;;8.5;;
58306;SDS011;44116;50.884;4.768;2023-10-09T12:18:20;15.8;;;8.4;;
58306;SDS011;44116;50.884;4.768;2023-10-09T12:20:19;16.6;;;7.9;;
58306;SDS011;44116;50.884;4.768;2023-10-09T12:22:21;13.3;;;7.8;;
58306;SDS011;44116;50.884;4.768;2023-10-09T12:24:18;15.5;;;7.9;;
58306;SDS011;44116;50.884;4.768;2023-10-09T12:26:19;14.8;;;7.6;;
58306;SDS011;44116;50.884;4.768;2023-10-09T12:28:19;18.9;;;8.2;;
58306;SDS011;44116;50.884;4.768;2023-10-09T12:30:19;14.8;;;7.8;;
58306;SDS011;44116;50.884;4.768;2023-10-09T12:32:19;15.1;;;7.9;;
58306;SDS011;44116;50.884;4.768;2023-10-09T12:36:19;19.6;;;8.2;;
58306;SDS011;44116;50.884;4.768;2023-10-09T12:38:19;16.8;;;8.4;;
58306;SDS011;44116;50.884;4.768;2023-10-09T12:40:19;17.9;;;7.7;;
58306;SDS011;44116;50.884;4.768;2023-10-09T12:42:19;17.3;;;7.6;;
58306;SDS011;44116;50.884;4.768;2023-10-09T12:44:19;16.3;;;7.7;;
58306;SDS011;44116;50.884;4.768;2023-10-09T12:46:19;15.0;;;7.8;;
58306;SDS011;44116;50.884;4.768;2023-10-09T12:48:19;15.7;;;8.0;;
58306;SDS011;44116;50.884;4.768;2023-10-09T12:50:19;15.5;;;8.2;;
58306;SDS011;44116;50.884;4.768;2023-10-09T12:52:19;15.5;;;7.8;;
58306;SDS011;44116;50.884;4.768;2023-10-09T12:54:19;15.4;;;8.4;;
58306;SDS011;44116;50.884;4.768;2023-10-09T12:56:19;16.9;;;8.1;;
58306;SDS011;44116;50.884;4.768;2023-10-09T12:58:19;18.1;;;8.3;;
58306;SDS011;44116;50.884;4.768;2023-10-09T13:02:19;21.0;;;8.6;;
58306;SDS011;44116;50.884;4.768;2023-10-09T13:04:19;18.3;;;8.8;;
58306;SDS011;44116;50.884;4.768;2023-10-09T13:06:19;16.9;;;8.9;;